Time;durP1;ratioP1;P1;durP2;ratioP2;P2;SDS_P1;SDS_P2;PMS_P1;PMS_P2;Temp;Humidity;BMP_temperature;BMP_pressure;BME280_temperature;BME280_humidity;BME280_pressure;Samples;Min_cycle;Max_cycle;Signal;HPM_P1;HPM_P2
2023/05/02 08:35:18;;;;;;;336.25;147.23;;;;;;;10.40;87.99;97107.84;2091029;28;21026;-60
2023/05/02 08:36:20;;;;;;;349.45;208.98;;;;;;;10.42;88.15;97112.13;2088874;28;20672;-61
2023/05/02 08:37:21;;;;;;;326.10;146.68;;;;;;;10.48;87.99;97112.78;2082068;28;20319;-60
2023/05/02 08:38:23;;;;;;;365.02;224.57;;;;;;;10.48;87.66;97116.25;2079086;28;20203;-61
2023/05/02 08:39:24;;;;;;;305.40;148.80;;;;;;;10.73;87.88;97103.13;2082655;28;20201;-61
2023/05/02 08:40:26;;;;;;;385.15;262.35;;;;;;;11.13;87.13;97112.94;2084254;28;20231;-61
2023/05/02 08:41:41;;;;;;;333.50;148.63;;;;;;;11.10;85.59;97109.53;2081974;28;20203;-61
2023/05/02 08:42:43;;;;;;;368.95;200.52;;;;;;;11.30;86.15;97109.66;2083837;28;20236;-61
2023/05/02 08:43:45;;;;;;;311.50;121.22;;;;;;;11.46;85.17;97113.34;2085486;28;20192;-61
2023/05/02 08:44:47;;;;;;;283.83;99.82;;;;;;;11.54;85.22;97107.78;2083092;28;20210;-61
2023/05/02 08:45:53;;;;;;;277.48;83.90;;;;;;;11.92;84.97;97116.69;2083153;28;20207;-61
2023/05/02 08:46:55;;;;;;;273.33;81.97;;;;;;;11.96;83.61;97111.34;2082464;28;20227;-61
2023/05/02 08:47:59;;;;;;;305.55;137.60;;;;;;;11.95;83.24;97104.34;2083513;28;20224;-61
2023/05/02 08:49:02;;;;;;;302.40;135.60;;;;;;;12.12;83.16;97101.91;2085949;28;20667;-61
2023/05/02 08:50:05;;;;;;;304.50;154.15;;;;;;;12.38;81.84;97110.41;2081090;28;20748;-61
2023/05/02 08:51:12;;;;;;;280.48;127.28;;;;;;;12.46;80.01;97113.50;2082510;28;20236;-61
2023/05/02 08:52:15;;;;;;;294.88;137.48;;;;;;;12.47;79.37;97104.72;2080779;28;20672;-61
2023/05/02 08:53:17;;;;;;;255.85;80.28;;;;;;;12.36;80.35;97107.81;2079241;28;20579;-62
2023/05/02 08:54:20;;;;;;;291.95;146.68;;;;;;;12.77;80.93;97106.84;2082536;28;20188;-61
2023/05/02 08:55:26;;;;;;;279.52;137.02;;;;;;;13.08;79.88;97108.06;2079967;28;20695;-61
2023/05/02 08:56:28;;;;;;;253.52;64.47;;;;;;;13.70;78.76;97119.06;2084899;28;20199;-61
2023/05/02 08:57:30;;;;;;;247.77;82.10;;;;;;;14.09;76.58;97117.13;2082580;28;20786;-61
2023/05/02 08:58:32;;;;;;;220.52;47.55;;;;;;;14.24;75.83;97115.50;2083984;28;20203;-61
2023/05/02 08:59:34;;;;;;;259.48;141.75;;;;;;;14.35;76.01;97114.94;2074471;28;20208;-61
2023/05/02 09:00:41;;;;;;;228.95;124.20;;;;;;;14.30;76.44;97109.09;2074406;28;20239;-61
2023/05/02 09:01:45;;;;;;;216.93;105.75;;;;;;;14.51;75.06;97118.47;2081928;28;20283;-62
2023/05/02 09:03:10;;;;;;;165.45;42.70;;;;;;;14.89;75.29;97122.59;2084204;28;20221;-62
2023/05/02 09:04:12;;;;;;;165.80;47.22;;;;;;;14.95;73.54;97108.28;2080436;28;20644;-70
2023/05/02 09:05:19;;;;;;;169.55;61.72;;;;;;;14.91;72.25;97110.22;2080457;28;20200;-69
2023/05/02 09:06:21;;;;;;;179.27;74.95;;;;;;;15.40;72.17;97124.22;2081110;28;20770;-70
2023/05/02 09:07:23;;;;;;;192.27;97.80;;;;;;;15.73;71.19;97124.09;2082811;28;20310;-70
2023/05/02 09:08:24;;;;;;;83.03;37.15;;;;;;;15.69;69.56;97130.44;2084161;28;20256;-70
2023/05/02 09:09:27;;;;;;;59.35;26.98;;;;;;;15.83;71.63;97122.63;2084021;28;20906;-70
2023/05/02 09:10:29;;;;;;;64.20;27.92;;;;;;;15.49;71.69;97126.31;2084295;28;20200;-69
2023/05/02 09:11:31;;;;;;;51.63;27.05;;;;;;;15.30;70.70;97114.22;2083707;28;20363;-69
2023/05/02 09:12:32;;;;;;;41.38;26.73;;;;;;;15.14;71.77;97129.16;2082076;28;20227;-69
2023/05/02 09:13:41;;;;;;;45.53;26.63;;;;;;;15.24;72.11;97125.06;2081439;28;20623;-69
2023/05/02 09:14:43;;;;;;;34.95;23.35;;;;;;;15.29;72.22;97123.03;2083052;28;20802;-70
2023/05/02 09:15:57;;;;;;;37.08;24.58;;;;;;;15.31;72.39;97130.84;2081604;28;20197;-69
2023/05/02 09:16:59;;;;;;;33.13;22.58;;;;;;;15.00;71.76;97136.00;2082660;28;20657;-69
2023/05/02 09:18:01;;;;;;;34.30;24.85;;;;;;;14.77;72.32;97116.25;2083077;28;20220;-69
2023/05/02 09:19:03;;;;;;;34.47;24.88;;;;;;;15.04;72.00;97128.81;2082063;28;20223;-69
2023/05/02 09:20:05;;;;;;;37.40;24.20;;;;;;;15.06;72.84;97124.31;2082862;28;20575;-70
2023/05/02 09:21:14;;;;;;;40.97;25.70;;;;;;;15.02;72.59;97128.91;2081019;28;20228;-69
2023/05/02 09:22:22;;;;;;;33.92;24.83;;;;;;;14.79;72.99;97131.94;2084404;28;20205;-70
2023/05/02 09:23:49;;;;;;;45.25;26.90;;;;;;;14.46;73.35;97132.75;2082018;28;20271;-69
2023/05/02 09:24:54;;;;;;;37.10;25.45;;;;;;;14.58;73.35;97132.13;2080015;28;20221;-70
2023/05/02 09:25:55;;;;;;;37.92;24.60;;;;;;;14.57;73.58;97129.56;2082937;28;20197;-69
2023/05/02 09:26:57;;;;;;;36.03;24.17;;;;;;;14.82;71.71;97140.50;2083264;28;20236;-69
2023/05/02 09:28:00;;;;;;;34.08;23.60;;;;;;;14.98;71.92;97139.66;2083285;28;20270;-69
2023/05/02 09:29:03;;;;;;;36.40;23.73;;;;;;;14.75;71.86;97133.88;2083050;28;20211;-70
2023/05/02 09:30:21;;;;;;;39.50;24.75;;;;;;;14.87;72.46;97132.38;2081635;28;20356;-69
2023/05/02 09:31:35;;;;;;;36.90;23.35;;;;;;;14.45;71.57;97142.44;2085529;28;20203;-69
2023/05/02 09:32:56;;;;;;;33.25;20.83;;;;;;;14.52;71.76;97132.44;2083347;28;20227;-69
2023/05/02 09:34:10;;;;;;;35.03;22.15;;;;;;;15.08;72.12;97130.31;2080213;28;20228;-70
2023/05/02 09:35:12;;;;;;;35.05;22.65;;;;;;;15.06;70.66;97141.88;2083207;28;20273;-69
2023/05/02 09:36:15;;;;;;;37.60;21.85;;;;;;;15.10;69.34;97132.91;2080821;28;20243;-69
2023/05/02 09:37:35;;;;;;;31.30;19.98;;;;;;;15.21;66.74;97129.66;2081129;28;20580;-69
2023/05/02 09:38:37;;;;;;;29.25;20.83;;;;;;;15.54;68.08;97137.44;2080911;28;20232;-69
2023/05/02 09:39:39;;;;;;;30.40;20.42;;;;;;;15.51;66.73;97130.59;2083225;28;20279;-69
2023/05/02 09:40:53;;;;;;;34.30;21.58;;;;;;;15.38;69.58;97129.56;2078922;28;20251;-69
2023/05/02 09:41:55;;;;;;;34.95;20.40;;;;;;;15.02;67.96;97130.69;2082972;28;20192;-69
2023/05/02 09:42:57;;;;;;;33.85;21.70;;;;;;;15.05;68.57;97127.03;2083875;28;20794;-70
2023/05/02 09:43:58;;;;;;;36.38;23.27;;;;;;;14.84;69.49;97133.38;2082950;28;20207;-69
2023/05/02 09:45:00;;;;;;;33.25;22.20;;;;;;;14.58;69.93;97137.38;2082139;28;20201;-69
2023/05/02 09:46:09;;;;;;;27.90;20.38;;;;;;;14.92;69.92;97130.34;2083429;28;20196;-69
2023/05/02 09:47:25;;;;;;;31.45;22.63;;;;;;;14.76;71.17;97132.94;2071181;28;20209;-68
2023/05/02 09:48:28;;;;;;;31.85;22.02;;;;;;;14.84;69.85;97130.75;2072207;28;20193;-69
2023/05/02 09:49:38;;;;;;;30.98;21.98;;;;;;;14.61;70.87;97139.00;2077946;28;20196;-69
2023/05/02 09:50:40;;;;;;;34.25;22.33;;;;;;;14.59;71.55;97136.44;2073296;28;20655;-69
2023/05/02 09:51:42;;;;;;;32.45;23.40;;;;;;;14.48;71.62;97130.91;2076623;28;20240;-69
2023/05/02 09:53:00;;;;;;;36.03;22.88;;;;;;;14.32;71.87;97118.59;2068325;28;20750;-69
2023/05/02 09:54:02;;;;;;;35.60;22.70;;;;;;;14.57;72.42;97130.41;2075415;28;20193;-69
2023/05/02 09:55:20;;;;;;;36.88;23.15;;;;;;;14.51;70.79;97120.22;2079743;28;20285;-69
2023/05/02 09:56:21;;;;;;;52.25;23.65;;;;;;;14.56;72.17;97127.88;2077144;28;20704;-69
2023/05/02 09:57:40;;;;;;;32.70;23.10;;;;;;;15.31;71.50;97126.44;2077394;28;20367;-69
2023/05/02 09:58:42;;;;;;;43.03;24.00;;;;;;;15.58;68.13;97117.91;2078525;28;20204;-69
2023/05/02 09:59:54;;;;;;;35.60;22.58;;;;;;;15.94;67.45;97132.53;2078467;28;20285;-69
2023/05/02 10:00:57;;;;;;;35.28;24.60;;;;;;;15.75;68.15;97114.28;2078491;28;20253;-69
2023/05/02 10:02:01;;;;;;;29.15;21.85;;;;;;;15.71;67.09;97130.38;2076486;28;20201;-69
2023/05/02 10:03:05;;;;;;;39.25;22.00;;;;;;;16.35;66.40;97128.38;2076858;28;20248;-69
2023/05/02 10:04:15;;;;;;;33.15;20.90;;;;;;;16.64;65.88;97129.22;2074079;28;20197;-69
2023/05/02 10:05:18;;;;;;;39.05;22.08;;;;;;;16.34;65.49;97124.06;2072663;28;20565;-70
2023/05/02 10:06:20;;;;;;;32.20;22.67;;;;;;;16.11;65.35;97126.28;2076118;28;20233;-69
2023/05/02 10:07:22;;;;;;;32.80;21.80;;;;;;;16.16;65.15;97137.38;2076415;28;20256;-69
2023/05/02 10:08:28;;;;;;;30.45;21.30;;;;;;;16.44;63.92;97132.22;2078428;28;20265;-69
2023/05/02 10:09:31;;;;;;;27.70;21.77;;;;;;;15.83;64.08;97106.84;2078860;28;20621;-62
2023/05/02 10:10:39;;;;;;;36.45;22.88;;;;;;;15.74;66.17;97128.38;2076861;28;20205;-62
2023/05/02 10:11:42;;;;;;;24.90;19.17;;;;;;;15.94;66.46;97129.06;2075964;28;20201;-62
2023/05/02 10:12:46;;;;;;;35.17;20.58;;;;;;;16.00;66.91;97137.44;2075589;28;20922;-62
2023/05/02 10:13:48;;;;;;;31.88;20.38;;;;;;;16.14;65.42;97136.63;2076476;28;20193;-62
2023/05/02 10:14:57;;;;;;;32.22;18.25;;;;;;;15.83;64.66;97127.91;2075377;28;20822;-62
2023/05/02 10:16:03;;;;;;;25.58;17.60;;;;;;;15.98;65.44;97136.66;2073456;28;20680;-62
2023/05/02 10:17:20;;;;;;;31.05;19.42;;;;;;;16.02;65.95;97137.34;2071138;28;20289;-62
2023/05/02 10:18:47;;;;;;;24.08;18.33;;;;;;;15.34;67.71;97138.56;2076138;28;20208;-62
2023/05/02 10:20:05;;;;;;;30.40;18.60;;;;;;;15.17;65.79;97134.22;2074439;28;20687;-62
2023/05/02 10:21:11;;;;;;;27.42;20.27;;;;;;;14.92;65.16;97130.34;2079242;28;20212;-62
2023/05/02 10:22:13;;;;;;;31.20;20.80;;;;;;;14.82;65.68;97129.16;2076600;28;20198;-62
2023/05/02 10:23:15;;;;;;;28.92;21.30;;;;;;;14.95;65.50;97145.09;2076373;28;20193;-62
2023/05/02 10:24:17;;;;;;;25.98;19.70;;;;;;;15.04;65.46;97130.59;2078221;28;20212;-62
2023/05/02 10:25:19;;;;;;;31.45;20.45;;;;;;;14.95;66.47;97134.59;2078923;28;20209;-62
2023/05/02 10:26:22;;;;;;;31.85;20.65;;;;;;;14.83;68.33;97141.34;2078031;28;20934;-62
2023/05/02 10:27:24;;;;;;;29.35;20.30;;;;;;;14.74;67.92;97141.84;2075759;28;20570;-62
2023/05/02 10:28:26;;;;;;;30.60;21.45;;;;;;;14.39;67.95;97142.75;2076104;28;20221;-62
2023/05/02 10:29:30;;;;;;;34.63;21.83;;;;;;;14.24;69.50;97152.25;2074668;28;20197;-62
2023/05/02 10:30:32;;;;;;;30.80;23.25;;;;;;;14.13;69.04;97144.94;2075166;28;20229;-62
2023/05/02 10:31:36;;;;;;;37.78;24.77;;;;;;;14.50;68.04;97142.16;2075884;28;20208;-62
2023/05/02 10:32:39;;;;;;;27.20;20.55;;;;;;;14.85;67.30;97150.88;2074845;28;20395;-62
2023/05/02 10:33:40;;;;;;;31.55;21.15;;;;;;;15.02;66.80;97143.84;2076950;28;20288;-62
2023/05/02 10:34:43;;;;;;;33.15;22.20;;;;;;;15.58;65.10;97143.38;2073793;28;20287;-62
2023/05/02 10:35:47;;;;;;;32.22;21.98;;;;;;;15.48;65.56;97146.53;2076748;28;20206;-62
2023/05/02 10:36:49;;;;;;;43.22;22.23;;;;;;;15.86;65.75;97140.03;2077138;28;20236;-62
2023/05/02 10:37:51;;;;;;;32.83;21.83;;;;;;;16.36;65.32;97135.34;2076621;28;20249;-62
2023/05/02 10:38:54;;;;;;;32.45;21.23;;;;;;;16.66;65.26;97137.06;2076654;28;20197;-62
2023/05/02 10:39:55;;;;;;;37.67;21.55;;;;;;;17.35;62.57;97136.34;2076942;28;20208;-62
2023/05/02 10:41:00;;;;;;;32.33;21.25;;;;;;;17.33;62.09;97135.56;2075645;28;20243;-62
2023/05/02 10:42:05;;;;;;;30.58;20.08;;;;;;;17.58;60.94;97132.19;2076151;28;20224;-62
2023/05/02 10:43:07;;;;;;;31.98;21.55;;;;;;;17.25;59.45;97128.97;2078001;28;20232;-62
2023/05/02 10:44:09;;;;;;;33.50;22.60;;;;;;;16.75;61.17;97120.66;2077392;28;20212;-62
2023/05/02 10:45:30;;;;;;;39.00;21.50;;;;;;;17.45;62.51;97129.50;2073375;28;20335;-62
2023/05/02 10:46:37;;;;;;;32.67;20.80;;;;;;;17.34;61.61;97132.00;2075845;28;20197;-62
2023/05/02 10:47:39;;;;;;;33.05;21.35;;;;;;;17.35;61.77;97128.41;2070876;28;20286;-62
2023/05/02 10:48:41;;;;;;;37.33;21.48;;;;;;;17.28;60.42;97125.31;2074869;28;20205;-62
2023/05/02 10:49:53;;;;;;;29.33;21.50;;;;;;;17.38;62.59;97129.06;2076921;28;20201;-62
2023/05/02 10:50:57;;;;;;;28.92;20.98;;;;;;;17.66;61.88;97127.28;2075213;28;20220;-63
2023/05/02 10:52:18;;;;;;;25.52;18.58;;;;;;;18.29;61.75;97140.72;2074820;28;20194;-62
2023/05/02 10:53:23;;;;;;;35.25;21.80;;;;;;;18.73;61.22;97125.41;2074882;28;20221;-62
2023/05/02 10:54:25;;;;;;;27.45;20.45;;;;;;;18.68;60.92;97128.34;2076157;28;20220;-63
2023/05/02 10:55:26;;;;;;;30.17;20.02;;;;;;;18.29;60.29;97127.50;2075878;28;20204;-62
2023/05/02 10:56:28;;;;;;;36.38;21.25;;;;;;;18.26;58.95;97133.00;2076605;28;20232;-63
2023/05/02 10:57:29;;;;;;;28.92;20.15;;;;;;;18.11;58.91;97125.16;2077428;28;20225;-62
2023/05/02 10:58:31;;;;;;;26.58;19.02;;;;;;;18.46;59.59;97125.50;2074920;28;20205;-62
2023/05/02 10:59:42;;;;;;;27.67;19.90;;;;;;;19.15;58.38;97120.66;2072399;28;20734;-62
2023/05/02 11:00:43;;;;;;;29.42;20.48;;;;;;;19.61;57.12;97126.22;2076713;28;20204;-62
2023/05/02 11:01:45;;;;;;;34.40;21.17;;;;;;;19.37;55.87;97122.59;2074038;28;20224;-68
2023/05/02 11:02:47;;;;;;;26.10;17.52;;;;;;;19.33;55.31;97115.84;2073062;28;20225;-68
2023/05/02 11:03:54;;;;;;;27.20;19.75;;;;;;;18.70;56.14;97126.47;2074881;28;20232;-69
2023/05/02 11:05:08;;;;;;;25.40;20.38;;;;;;;18.95;55.79;97124.75;2076390;28;20201;-69
2023/05/02 11:06:09;;;;;;;28.73;19.80;;;;;;;19.01;53.46;97119.00;2073958;28;20197;-69
2023/05/02 11:07:17;;;;;;;31.58;20.95;;;;;;;18.79;54.04;97122.28;2073655;28;20233;-68
2023/05/02 11:08:19;;;;;;;26.45;18.35;;;;;;;18.57;56.51;97122.97;2076766;28;20687;-69
2023/05/02 11:09:23;;;;;;;33.83;20.77;;;;;;;19.15;55.66;97114.53;2075791;28;20208;-68
2023/05/02 11:10:25;;;;;;;38.15;20.35;;;;;;;18.75;54.98;97119.03;2078460;28;20540;-68
2023/05/02 11:11:41;;;;;;;28.90;20.08;;;;;;;18.75;53.65;97104.94;2078465;28;20200;-68
2023/05/02 11:12:47;;;;;;;29.27;21.10;;;;;;;19.41;54.20;97115.28;2075542;28;20220;-68
2023/05/02 11:13:50;;;;;;;27.25;20.35;;;;;;;18.55;55.87;97109.00;2076040;28;20243;-68
2023/05/02 11:14:51;;;;;;;31.40;19.35;;;;;;;18.22;56.79;97120.94;2076753;28;20201;-68
2023/05/02 11:15:54;;;;;;;28.95;19.58;;;;;;;18.12;57.67;97120.75;2076711;28;20197;-68
2023/05/02 11:16:56;;;;;;;26.85;19.63;;;;;;;18.19;58.09;97124.63;2076887;28;20817;-68
2023/05/02 11:18:01;;;;;;;34.75;22.33;;;;;;;17.91;57.57;97123.81;2074997;28;20232;-68
2023/05/02 11:19:03;;;;;;;28.52;20.02;;;;;;;17.71;57.75;97119.03;2073971;28;20201;-68
2023/05/02 11:20:04;;;;;;;25.85;20.25;;;;;;;17.58;58.51;97098.69;2068012;28;20233;-68
2023/05/02 11:21:29;;;;;;;29.13;19.52;;;;;;;17.54;57.88;97125.44;2073151;28;20366;-68
2023/05/02 11:22:32;;;;;;;30.42;20.77;;;;;;;17.78;56.95;97121.16;2075664;28;20241;-68
2023/05/02 11:23:35;;;;;;;27.70;19.48;;;;;;;17.41;57.06;97120.09;2076369;28;20615;-68
2023/05/02 11:24:43;;;;;;;28.20;19.48;;;;;;;17.46;57.50;97116.19;2076583;28;20197;-68
2023/05/02 11:25:46;;;;;;;29.65;19.80;;;;;;;17.55;57.82;97124.47;2076901;28;20243;-68
2023/05/02 11:26:48;;;;;;;29.75;21.13;;;;;;;17.16;58.79;97111.09;2074719;28;20551;-68
2023/05/02 11:27:50;;;;;;;29.92;20.23;;;;;;;17.19;58.61;97120.63;2070991;28;20222;-68
2023/05/02 11:28:51;;;;;;;33.03;20.60;;;;;;;16.85;59.31;97123.59;2072478;28;20197;-68
2023/05/02 11:29:57;;;;;;;28.35;21.60;;;;;;;16.57;61.81;97124.41;2076219;28;20813;-68
2023/05/02 11:30:59;;;;;;;31.55;22.55;;;;;;;16.55;62.40;97115.78;2076915;28;20232;-68
2023/05/02 11:32:00;;;;;;;33.85;23.80;;;;;;;16.33;63.35;97125.00;2075469;28;20201;-68
2023/05/02 11:33:05;;;;;;;35.92;22.67;;;;;;;16.25;64.10;97130.72;2077008;28;20258;-68
2023/05/02 11:34:06;;;;;;;34.38;23.48;;;;;;;16.32;63.15;97118.84;2073574;28;20320;-68
2023/05/02 11:35:17;;;;;;;31.83;21.65;;;;;;;16.25;63.83;97120.19;2074310;28;20232;-68
2023/05/02 11:36:29;;;;;;;35.72;22.38;;;;;;;16.56;64.96;97131.50;2076876;28;20684;-68
2023/05/02 11:37:32;;;;;;;38.10;24.23;;;;;;;16.61;62.94;97128.59;2074876;28;20220;-68
2023/05/02 11:38:38;;;;;;;34.65;23.80;;;;;;;16.49;60.81;97125.75;2076231;28;20228;-68
2023/05/02 11:39:40;;;;;;;30.08;21.35;;;;;;;16.68;60.49;97121.13;2074501;28;20584;-68
2023/05/02 11:40:50;;;;;;;29.85;21.00;;;;;;;17.33;59.80;97117.09;2076246;28;20280;-68
2023/05/02 11:41:53;;;;;;;32.75;23.42;;;;;;;17.52;59.48;97120.25;2077691;28;20189;-68
2023/05/02 11:42:56;;;;;;;34.30;23.00;;;;;;;17.63;59.96;97112.44;2074903;28;20274;-68
2023/05/02 11:44:04;;;;;;;36.33;23.60;;;;;;;17.58;59.21;97117.19;2074330;28;20212;-68
2023/05/02 11:45:05;;;;;;;36.88;24.40;;;;;;;17.48;59.86;97110.81;2075946;28;20205;-69
2023/05/02 11:46:07;;;;;;;32.72;23.00;;;;;;;17.58;57.99;97111.91;2077631;28;20208;-68
2023/05/02 11:47:09;;;;;;;32.47;22.90;;;;;;;18.34;58.05;97122.75;2074369;28;20300;-67
2023/05/02 11:48:13;;;;;;;35.20;23.23;;;;;;;18.40;56.19;97126.78;2076516;28;20248;-68
2023/05/02 11:49:15;;;;;;;30.08;21.55;;;;;;;18.59;56.01;97123.72;2075334;28;20204;-68
2023/05/02 11:50:17;;;;;;;27.80;21.65;;;;;;;19.32;55.91;97129.19;2078274;28;20212;-68
2023/05/02 11:51:22;;;;;;;31.63;22.77;;;;;;;19.48;55.18;97118.34;2074655;28;20205;-68
2023/05/02 11:52:23;;;;;;;36.70;22.85;;;;;;;19.62;53.93;97112.00;2067710;28;20230;-68
2023/05/02 11:53:28;;;;;;;36.10;23.75;;;;;;;18.93;55.75;97124.84;2074957;28;20864;-68
2023/05/02 11:54:29;;;;;;;32.65;24.95;;;;;;;18.52;57.38;97120.63;2075620;28;20201;-68
2023/05/02 11:55:31;;;;;;;37.08;24.58;;;;;;;18.35;57.54;97121.81;2076801;28;20196;-69
2023/05/02 11:56:32;;;;;;;38.78;26.15;;;;;;;18.34;58.30;97108.69;2074523;28;20701;-68
2023/05/02 11:57:34;;;;;;;37.22;24.33;;;;;;;18.66;56.38;97132.06;2075446;28;20234;-69
2023/05/02 11:58:36;;;;;;;30.00;22.60;;;;;;;18.63;55.77;97127.81;2074621;28;20229;-69
2023/05/02 11:59:53;;;;;;;36.22;25.50;;;;;;;18.55;56.34;97128.38;2076199;28;20201;-68
2023/05/02 12:00:56;;;;;;;40.38;25.70;;;;;;;19.11;56.16;97131.56;2077356;28;20203;-69
2023/05/02 12:01:57;;;;;;;32.63;23.00;;;;;;;19.40;54.93;97119.75;2074894;28;20201;-68
2023/05/02 12:02:58;;;;;;;34.95;21.80;;;;;;;19.21;54.00;97129.97;2078021;28;20225;-68
2023/05/02 12:04:06;;;;;;;33.25;22.50;;;;;;;19.39;53.11;97122.50;2072649;28;20658;-69
2023/05/02 12:05:09;;;;;;;33.03;23.00;;;;;;;19.58;54.72;97129.94;2075445;28;20285;-68
2023/05/02 12:06:17;;;;;;;31.20;22.25;;;;;;;19.65;53.19;97117.91;2074400;28;20190;-68
2023/05/02 12:07:33;;;;;;;31.17;21.83;;;;;;;20.30;53.07;97138.78;2074930;28;20205;-68
2023/05/02 12:08:35;;;;;;;37.20;24.35;;;;;;;20.11;53.74;97132.19;2076237;28;20200;-69
2023/05/02 12:09:52;;;;;;;39.63;24.10;;;;;;;19.67;54.59;97133.72;2073524;28;20240;-68
2023/05/02 12:10:55;;;;;;;35.10;23.58;;;;;;;20.12;52.60;97136.53;2076311;28;20610;-68
2023/05/02 12:11:57;;;;;;;31.75;23.25;;;;;;;19.59;52.91;97128.97;2074209;28;20255;-68
2023/05/02 12:13:03;;;;;;;32.10;23.88;;;;;;;19.67;54.93;97142.50;2075281;28;20279;-68
2023/05/02 12:14:05;;;;;;;32.47;21.77;;;;;;;20.18;54.58;97120.19;2074938;28;20200;-68
2023/05/02 12:15:11;;;;;;;33.92;23.90;;;;;;;19.80;55.02;97133.66;2075450;28;20269;-68
2023/05/02 12:16:13;;;;;;;44.05;24.67;;;;;;;19.36;54.40;97138.59;2070572;28;20208;-68
2023/05/02 12:17:16;;;;;;;39.05;24.50;;;;;;;18.44;56.58;97134.38;2066774;28;20289;-68
2023/05/02 12:18:18;;;;;;;37.08;25.80;;;;;;;18.38;57.13;97144.53;2077026;28;20230;-69
2023/05/02 12:19:22;;;;;;;41.97;27.20;;;;;;;18.59;57.66;97136.94;2075100;28;20209;-68
2023/05/02 12:20:24;;;;;;;42.15;26.02;;;;;;;18.64;55.89;97136.59;2078167;28;20620;-69
2023/05/02 12:21:29;;;;;;;30.48;22.90;;;;;;;18.56;56.29;97131.84;2070522;28;20210;-68
2023/05/02 12:22:31;;;;;;;39.05;24.55;;;;;;;18.91;55.76;97137.34;2075346;28;20224;-69
2023/05/02 12:23:32;;;;;;;37.92;26.35;;;;;;;18.50;56.97;97134.91;2073043;28;20203;-68
2023/05/02 12:24:36;;;;;;;37.22;26.48;;;;;;;18.71;56.43;97141.34;2069812;28;20852;-68
2023/05/02 12:25:42;;;;;;;32.00;23.20;;;;;;;19.11;56.57;97142.16;2072407;28;20194;-68
2023/05/02 12:26:43;;;;;;;35.80;26.17;;;;;;;19.47;54.99;97136.00;2073159;28;20672;-69
2023/05/02 12:27:58;;;;;;;38.92;26.98;;;;;;;19.73;54.68;97144.69;2074547;28;20303;-68
2023/05/02 12:29:01;;;;;;;40.97;26.00;;;;;;;20.01;53.91;97131.22;2073940;28;20204;-68
2023/05/02 12:30:04;;;;;;;38.63;26.70;;;;;;;20.32;54.42;97132.38;2076027;28;20276;-68
2023/05/02 12:31:09;;;;;;;32.85;24.33;;;;;;;19.87;53.11;97119.88;2074459;28;20251;-68
2023/05/02 12:32:12;;;;;;;38.25;24.83;;;;;;;19.97;53.40;97138.56;2072037;28;20193;-68
2023/05/02 12:33:15;;;;;;;35.53;24.83;;;;;;;19.92;53.82;97116.84;2076073;28;20192;-68
2023/05/02 12:34:37;;;;;;;40.65;24.83;;;;;;;19.79;53.87;97130.13;2077178;28;20292;-67
2023/05/02 12:35:38;;;;;;;37.85;26.05;;;;;;;20.01;53.15;97129.44;2075733;28;20256;-68
2023/05/02 12:36:44;;;;;;;37.92;27.00;;;;;;;19.82;53.55;97137.00;2072513;28;20745;-68
2023/05/02 12:37:45;;;;;;;33.60;24.45;;;;;;;20.42;53.60;97134.31;2071977;28;20228;-68
2023/05/02 12:38:53;;;;;;;38.20;26.42;;;;;;;20.23;53.05;97133.94;2073124;28;20198;-69
2023/05/02 12:39:55;;;;;;;31.90;22.23;;;;;;;20.38;52.88;97123.97;2074374;28;20255;-68
2023/05/02 12:40:57;;;;;;;34.83;21.98;;;;;;;21.16;52.37;97134.72;2073458;28;20200;-68
2023/05/02 12:41:58;;;;;;;35.38;22.77;;;;;;;21.71;51.65;97144.53;2075891;28;20247;-69
2023/05/02 12:43:03;;;;;;;30.17;23.55;;;;;;;21.26;50.12;97129.53;2076977;28;20221;-69
2023/05/02 12:44:06;;;;;;;33.55;23.52;;;;;;;20.37;51.24;97138.19;2076150;28;20197;-69
2023/05/02 12:45:17;;;;;;;42.20;25.33;;;;;;;20.26;52.20;97138.16;2077096;28;20663;-69
2023/05/02 12:46:19;;;;;;;35.85;24.20;;;;;;;20.26;52.75;97132.00;2074698;28;20278;-69
2023/05/02 12:47:21;;;;;;;37.85;23.40;;;;;;;20.33;52.78;97135.91;2075092;28;20293;-68
2023/05/02 12:48:25;;;;;;;31.50;23.10;;;;;;;20.64;51.87;97136.16;2075076;28;20531;-68
2023/05/02 12:49:26;;;;;;;29.40;20.05;;;;;;;20.27;52.02;97131.91;2075739;28;20193;-69
2023/05/02 12:50:35;;;;;;;33.58;22.15;;;;;;;19.52;52.58;97133.03;2073207;28;20292;-68
2023/05/02 12:51:38;;;;;;;28.30;19.98;;;;;;;19.37;53.21;97141.13;2070298;28;20206;-68
2023/05/02 12:52:56;;;;;;;29.65;20.98;;;;;;;19.52;52.05;97123.28;2070580;28;20646;-68
2023/05/02 12:53:57;;;;;;;28.45;20.40;;;;;;;20.13;52.03;97129.47;2069647;28;20201;-68
2023/05/02 12:55:18;;;;;;;35.13;20.60;;;;;;;20.73;50.70;97138.13;2073843;28;20213;-68
2023/05/02 12:56:20;;;;;;;32.10;20.15;;;;;;;20.60;49.47;97134.72;2074800;28;20559;-68
2023/05/02 12:57:23;;;;;;;30.50;19.13;;;;;;;21.03;48.99;97145.47;2074950;28;20209;-69
2023/05/02 12:58:27;;;;;;;29.25;20.33;;;;;;;19.95;48.99;97134.31;2073218;28;20309;-68
2023/05/02 12:59:32;;;;;;;24.63;17.63;;;;;;;20.71;49.50;97134.78;2075761;28;20403;-69
2023/05/02 13:00:37;;;;;;;26.80;19.00;;;;;;;20.52;49.87;97130.84;2076193;28;20205;-69
2023/05/02 13:01:39;;;;;;;29.45;18.42;;;;;;;20.25;49.70;97127.66;2074483;28;20301;-68
2023/05/02 13:02:40;;;;;;;24.33;17.23;;;;;;;20.64;50.13;97136.16;2073088;28;20759;-69
2023/05/02 13:03:42;;;;;;;24.60;17.35;;;;;;;21.58;49.58;97138.53;2075213;28;20193;-68
2023/05/02 13:04:44;;;;;;;27.70;19.60;;;;;;;21.48;48.73;97139.28;2073590;28;20688;-69
2023/05/02 13:05:45;;;;;;;24.10;17.40;;;;;;;21.75;48.73;97130.03;2074831;28;20198;-69
2023/05/02 13:06:47;;;;;;;27.23;18.98;;;;;;;22.01;48.93;97141.13;2073597;28;20229;-68
2023/05/02 13:07:48;;;;;;;28.45;19.23;;;;;;;21.69;49.20;97131.38;2073957;28;20321;-68
2023/05/02 13:08:50;;;;;;;30.35;20.48;;;;;;;21.25;49.72;97140.28;2074200;28;20224;-68
2023/05/02 13:09:51;;;;;;;31.20;19.95;;;;;;;20.69;50.84;97136.66;2075341;28;20813;-68
2023/05/02 13:10:53;;;;;;;30.33;19.73;;;;;;;20.41;51.98;97133.50;2074229;28;20848;-68
2023/05/02 13:11:55;;;;;;;31.40;21.17;;;;;;;20.67;51.41;97135.91;2075719;28;20233;-68
2023/05/02 13:12:57;;;;;;;30.10;18.85;;;;;;;20.87;51.33;97137.03;2075197;28;20316;-68
2023/05/02 13:14:00;;;;;;;37.03;21.23;;;;;;;20.45;52.64;97128.78;2075651;28;20223;-68
2023/05/02 13:15:05;;;;;;;34.15;20.67;;;;;;;20.21;52.10;97129.72;2075811;28;20201;-68
2023/05/02 13:16:07;;;;;;;31.67;21.20;;;;;;;20.02;52.59;97131.13;2075840;28;20217;-68
2023/05/02 13:17:09;;;;;;;30.10;19.60;;;;;;;20.90;51.59;97122.69;2072332;28;20213;-68
2023/05/02 13:18:11;;;;;;;27.77;19.50;;;;;;;21.33;51.35;97130.72;2076481;28;20193;-68
2023/05/02 13:19:12;;;;;;;26.25;19.10;;;;;;;20.93;50.70;97131.25;2073430;28;20536;-68
2023/05/02 13:20:14;;;;;;;25.23;18.63;;;;;;;20.58;51.14;97139.28;2077409;28;20193;-68
2023/05/02 13:21:15;;;;;;;30.70;20.52;;;;;;;20.64;52.04;97136.16;2075074;28;20802;-68
2023/05/02 13:22:17;;;;;;;29.30;18.95;;;;;;;20.64;50.49;97130.88;2077648;28;20207;-68
2023/05/02 13:23:18;;;;;;;30.83;18.17;;;;;;;20.99;51.31;97129.94;2077032;28;20691;-68
2023/05/02 13:24:20;;;;;;;28.73;19.45;;;;;;;21.32;50.82;97129.03;2076145;28;20201;-68
2023/05/02 13:25:21;;;;;;;29.02;20.55;;;;;;;21.19;52.04;97128.31;2077844;28;20282;-68
2023/05/02 13:26:22;;;;;;;26.75;19.13;;;;;;;21.43;51.45;97130.81;2076441;28;20209;-68
2023/05/02 13:27:25;;;;;;;29.63;18.95;;;;;;;21.49;50.70;97111.72;2077457;28;20284;-68
2023/05/02 13:28:27;;;;;;;30.20;19.60;;;;;;;21.73;50.39;97136.44;2074569;28;20268;-68
2023/05/02 13:29:30;;;;;;;29.73;18.25;;;;;;;21.60;48.72;97126.81;2078240;28;20213;-68
2023/05/02 13:30:32;;;;;;;26.77;18.42;;;;;;;21.30;49.59;97128.31;2077715;28;20198;-68
2023/05/02 13:31:33;;;;;;;30.45;19.35;;;;;;;21.53;49.95;97137.09;2076062;28;20287;-68
2023/05/02 13:32:35;;;;;;;29.10;18.42;;;;;;;21.49;50.58;97122.34;2078499;28;20236;-68